createdAt,value
2016-05-24T00:00:28.654Z,33.49
2016-05-24T00:01:28.515Z,33.01
2016-05-24T00:02:28.676Z,33.29
2016-05-24T00:03:28.678Z,33.39
2016-05-24T00:04:28.681Z,33.01
2016-05-24T00:05:28.698Z,33.2
2016-05-24T00:06:28.701Z,33.49
2016-05-24T00:07:28.703Z,33.2
2016-05-24T00:08:28.722Z,32.91
2016-05-24T00:09:28.725Z,33.2
2016-05-24T00:10:28.728Z,33.29
2016-05-24T00:11:28.730Z,33.2
2016-05-24T00:12:28.733Z,33.29
2016-05-24T00:13:28.751Z,33.01
2016-05-24T00:14:28.753Z,33.39
2016-05-24T00:15:28.756Z,33.01
2016-05-24T00:16:28.759Z,33.2
2016-05-24T00:17:28.762Z,33.01
2016-05-24T00:18:28.764Z,33.1
2016-05-24T00:19:28.783Z,33.1
2016-05-24T00:20:28.786Z,33.01
2016-05-24T00:21:28.789Z,33.01
2016-05-24T00:22:28.791Z,33.01
2016-05-24T00:23:28.794Z,33.01
2016-05-24T00:24:28.812Z,33.2
2016-05-24T00:25:28.815Z,33.49
2016-05-24T00:26:28.660Z,33.39
2016-05-24T00:27:28.664Z,33.39
2016-05-24T00:28:28.823Z,33.29
2016-05-24T00:29:28.748Z,33.29
2016-05-24T00:30:28.843Z,33.29
2016-05-24T00:31:28.847Z,33.39
2016-05-24T00:32:44.646Z,33.01
2016-05-24T00:33:28.868Z,33.1
2016-05-24T00:34:28.870Z,32.91
2016-05-24T00:35:28.873Z,32.71
2016-05-24T00:36:28.875Z,32.92
2016-05-24T00:37:28.878Z,32.71
2016-05-24T00:38:28.897Z,33.01
2016-05-24T00:39:28.900Z,32.92
2016-05-24T00:40:28.903Z,32.71
2016-05-24T00:41:28.936Z,32.81
2016-05-24T00:42:28.923Z,32.73
2016-05-24T00:43:28.941Z,32.81
2016-05-24T00:44:29.272Z,32.91
2016-05-24T00:45:28.947Z,32.81
2016-05-24T00:46:28.934Z,32.91
2016-05-24T00:47:28.967Z,32.92
2016-05-24T00:48:28.970Z,32.82
2016-05-24T00:49:28.958Z,32.81
2016-05-24T00:50:28.976Z,32.92
2016-05-24T00:51:28.978Z,32.81
2016-05-24T00:52:28.981Z,32.73
2016-05-24T00:53:28.983Z,32.91
2016-05-24T00:54:29.002Z,32.82
2016-05-24T00:55:29.005Z,32.73
2016-05-24T00:56:29.008Z,32.91
2016-05-24T00:57:29.010Z,32.73
2016-05-24T00:58:29.013Z,32.91
2016-05-24T00:59:29.187Z,32.62
2016-05-24T01:00:29.045Z,32.91
2016-05-24T01:01:29.076Z,32.81
2016-05-24T01:02:29.107Z,33.01
2016-05-24T01:03:28.982Z,32.91
2016-05-24T01:04:29.169Z,32.91
2016-05-24T01:05:29.224Z,33.01
2016-05-24T01:06:29.065Z,32.91
2016-05-24T01:07:29.249Z,32.81
2016-05-24T01:08:29.263Z,32.91
2016-05-24T01:09:29.120Z,32.91
2016-05-24T01:10:29.286Z,32.71
2016-05-24T01:11:29.292Z,32.91
2016-05-24T01:12:29.315Z,33.01
2016-05-24T01:13:29.321Z,32.81
2016-05-24T01:14:29.390Z,32.81
2016-05-24T01:15:29.334Z,32.81
2016-05-24T01:16:29.337Z,33.01
2016-05-24T01:17:29.356Z,32.81
2016-05-24T01:18:29.360Z,32.71
2016-05-24T01:19:29.363Z,33.01
2016-05-24T01:20:29.367Z,32.81
2016-05-24T01:21:29.387Z,33.01
2016-05-24T01:22:29.389Z,32.91
2016-05-24T01:23:29.408Z,32.91
2016-05-24T01:24:29.410Z,33.01
2016-05-24T01:25:29.414Z,32.71
2016-05-24T01:26:29.416Z,32.71
2016-05-24T01:27:29.420Z,32.62
2016-05-24T01:28:29.485Z,32.91
2016-05-24T01:29:29.786Z,32.71
2016-05-24T01:30:29.428Z,32.71
2016-05-24T01:31:29.448Z,32.71
2016-05-24T01:32:29.467Z,32.71
2016-05-24T01:33:29.453Z,32.71
2016-05-24T01:34:29.471Z,32.71
2016-05-24T01:35:29.474Z,32.91
2016-05-24T01:36:29.476Z,32.81
2016-05-24T01:37:29.480Z,32.52
2016-05-24T01:38:29.498Z,32.62
2016-05-24T01:39:29.485Z,32.52
2016-05-24T01:40:29.519Z,32.62
2016-05-24T01:41:29.505Z,32.62
2016-05-24T01:42:29.508Z,32.52
2016-05-24T01:43:29.573Z,32.54
2016-05-24T01:44:29.374Z,32.33
2016-05-24T01:45:29.532Z,32.54
2016-05-24T01:46:29.551Z,32.34
2016-05-24T01:47:29.553Z,32.42
2016-05-24T01:48:29.556Z,32.52
2016-05-24T01:49:29.559Z,32.44
2016-05-24T01:50:29.562Z,32.34
2016-05-24T01:51:29.579Z,32.23
2016-05-24T01:52:29.582Z,32.34
2016-05-24T01:53:29.584Z,32.14
2016-05-24T01:54:29.587Z,32.33
2016-05-24T01:55:29.590Z,32.23
2016-05-24T01:56:29.593Z,32.33
2016-05-24T01:57:29.611Z,32.42
2016-05-24T01:58:29.614Z,32.23
2016-05-24T01:59:29.711Z,32.33
2016-05-24T02:00:29.635Z,32.15
2016-05-24T02:01:29.637Z,32.24
2016-05-24T02:02:29.640Z,32.14
2016-05-24T02:03:29.642Z,32.44
2016-05-24T02:04:29.645Z,32.33
2016-05-24T02:05:29.663Z,32.34
2016-05-24T02:06:29.667Z,32.14
2016-05-24T02:07:29.670Z,32.42
2016-05-24T02:08:29.672Z,32.14
2016-05-24T02:09:29.690Z,32.24
2016-05-24T02:10:29.693Z,32.33
2016-05-24T02:11:29.696Z,32.23
2016-05-24T02:12:29.714Z,32.24
2016-05-24T02:13:29.717Z,32.44
2016-05-24T02:14:29.719Z,32.23
2016-05-24T02:15:29.722Z,32.14
2016-05-24T02:16:29.724Z,32.23
2016-05-24T02:17:29.727Z,32.23
2016-05-24T02:18:29.730Z,32.33
2016-05-24T02:19:29.748Z,32.33
2016-05-24T02:20:29.768Z,32.23
2016-05-24T02:21:29.770Z,32.23
2016-05-24T02:22:29.756Z,32.23
2016-05-24T02:23:29.775Z,32.14
2016-05-24T02:24:29.793Z,32.23
2016-05-24T02:25:29.781Z,32.23
2016-05-24T02:26:29.798Z,32.23
2016-05-24T02:27:29.801Z,32.23
2016-05-24T02:28:29.804Z,32.14
2016-05-24T02:29:29.807Z,32.33
2016-05-24T02:30:29.809Z,32.14
2016-05-24T02:31:29.828Z,32.23
2016-05-24T02:32:29.830Z,32.23
2016-05-24T02:33:29.833Z,32.23
2016-05-24T02:34:29.850Z,32.33
2016-05-24T02:35:29.854Z,32.23
2016-05-24T02:36:29.856Z,32.52
2016-05-24T02:37:29.859Z,32.42
2016-05-24T02:38:29.861Z,32.33
2016-05-24T02:39:29.880Z,32.33
2016-05-24T02:40:29.883Z,32.33
2016-05-24T02:41:29.886Z,32.42
2016-05-24T02:42:29.889Z,32.42
2016-05-24T02:43:29.891Z,32.42
2016-05-24T02:44:29.909Z,32.33
2016-05-24T02:45:29.818Z,32.33
2016-05-24T02:46:29.758Z,32.42
2016-05-24T02:47:29.980Z,32.52
2016-05-24T02:48:29.827Z,32.52
2016-05-24T02:49:29.782Z,32.52
2016-05-24T02:50:30.004Z,32.42
2016-05-24T02:51:29.787Z,32.52
2016-05-24T02:52:29.806Z,32.62
2016-05-24T02:53:30.012Z,32.42
2016-05-24T02:54:30.046Z,32.42
2016-05-24T02:55:29.970Z,32.51
2016-05-24T02:56:29.973Z,32.71
2016-05-24T02:57:29.992Z,32.71
2016-05-24T02:58:29.995Z,32.51
2016-05-24T02:59:30.012Z,32.7
2016-05-24T03:00:30.000Z,32.6
2016-05-24T03:01:30.002Z,32.51
2016-05-24T03:02:30.020Z,32.6
2016-05-24T03:03:30.023Z,32.6
2016-05-24T03:04:30.026Z,32.62
2016-05-24T03:05:30.044Z,32.7
2016-05-24T03:06:30.047Z,32.6
2016-05-24T03:07:30.050Z,32.6
2016-05-24T03:08:30.052Z,32.41
2016-05-24T03:09:30.055Z,32.7
2016-05-24T03:10:30.058Z,32.51
2016-05-24T03:11:30.075Z,32.7
2016-05-24T03:12:30.078Z,32.51
2016-05-24T03:13:30.080Z,32.79
2016-05-24T03:14:30.083Z,32.6
2016-05-24T03:15:30.102Z,32.6
2016-05-24T03:16:30.105Z,32.6
2016-05-24T03:17:30.108Z,32.6
2016-05-24T03:18:30.126Z,32.6
2016-05-24T03:19:30.143Z,32.6
2016-05-24T03:20:30.131Z,32.51
2016-05-24T03:21:30.134Z,32.6
2016-05-24T03:22:30.168Z,32.51
2016-05-24T03:23:30.140Z,32.41
2016-05-24T03:24:30.157Z,32.51
2016-05-24T03:25:30.004Z,32.51
2016-05-24T03:26:30.163Z,32.51
2016-05-24T03:27:30.165Z,32.41
2016-05-24T03:28:30.168Z,32.41
2016-05-24T03:29:30.187Z,32.31
2016-05-24T03:30:30.205Z,32.41
2016-05-24T03:31:30.192Z,32.12
2016-05-24T03:32:30.195Z,32.21
2016-05-24T03:33:30.197Z,32.12
2016-05-24T03:34:30.216Z,32.21
2016-05-24T03:35:30.219Z,32.12
2016-05-24T03:36:30.236Z,32.12
2016-05-24T03:37:30.100Z,32.21
2016-05-24T03:38:30.242Z,32.21
2016-05-24T03:39:30.245Z,32.31
2016-05-24T03:40:30.247Z,32.21
2016-05-24T03:41:30.250Z,32.31
2016-05-24T03:42:30.268Z,32.31
2016-05-24T03:43:30.272Z,32.41
2016-05-24T03:44:30.274Z,32.31
2016-05-24T03:45:30.324Z,32.31
2016-05-24T03:46:30.294Z,32.21
2016-05-24T03:47:30.141Z,32.31
2016-05-24T03:48:30.299Z,32.21
2016-05-24T03:49:30.303Z,32.21
2016-05-24T03:50:30.305Z,32.12
2016-05-24T03:51:30.168Z,32.21
2016-05-24T03:52:30.170Z,32.02
2016-05-24T03:53:30.330Z,32.21
2016-05-24T03:54:30.332Z,32.21
2016-05-24T03:55:30.194Z,32.21
2016-05-24T03:56:30.337Z,32.12
2016-05-24T03:57:30.356Z,32.21
2016-05-24T03:58:30.359Z,32.31
2016-05-24T03:59:30.486Z,32.21
2016-05-24T04:00:30.411Z,32.12
2016-05-24T04:01:30.382Z,32.12
2016-05-24T04:02:30.384Z,32.12
2016-05-24T04:03:30.387Z,32.21
2016-05-24T04:04:30.406Z,32.02
2016-05-24T04:05:30.409Z,32.12
2016-05-24T04:06:30.427Z,32.12
2016-05-24T04:07:30.430Z,32.02
2016-05-24T04:08:30.416Z,32.21
2016-05-24T04:09:30.435Z,32.12
2016-05-24T04:10:30.438Z,32.21
2016-05-24T04:11:30.300Z,32.21
2016-05-24T04:12:30.443Z,32.21
2016-05-24T04:13:30.446Z,32.02
2016-05-24T04:14:30.307Z,32.02
2016-05-24T04:15:30.497Z,32.02
2016-05-24T04:16:30.470Z,31.93
2016-05-24T04:17:30.316Z,32.02
2016-05-24T04:18:30.475Z,32.02
2016-05-24T04:19:30.493Z,32.12
2016-05-24T04:20:30.339Z,32.02
2016-05-24T04:21:30.499Z,32.12
2016-05-24T04:22:30.516Z,32.12
2016-05-24T04:23:30.519Z,32.12
2016-05-24T04:24:30.507Z,32.12
2016-05-24T04:25:30.524Z,32.02
2016-05-24T04:26:30.527Z,32.12
2016-05-24T04:27:30.545Z,31.93
2016-05-24T04:28:30.549Z,31.93
2016-05-24T04:29:30.551Z,32.12
2016-05-24T04:30:30.398Z,32.02
2016-05-24T04:31:30.556Z,31.83
2016-05-24T04:33:30.578Z,32.02
2016-05-24T04:34:30.581Z,31.93
2016-05-24T04:35:30.583Z,31.93
2016-05-24T04:36:30.445Z,31.83
2016-05-24T04:37:30.603Z,31.83
2016-05-24T04:38:30.606Z,31.93
2016-05-24T04:39:30.609Z,32.02
2016-05-24T04:40:30.612Z,32.02
2016-05-24T04:41:30.614Z,32.02
2016-05-24T04:42:30.633Z,32.12
2016-05-24T04:43:30.635Z,32.12
2016-05-24T04:44:30.639Z,32.02
2016-05-24T04:45:30.641Z,31.93
2016-05-24T04:46:30.660Z,31.93
2016-05-24T04:47:30.505Z,31.83
2016-05-24T04:48:30.665Z,31.83
2016-05-24T04:49:30.682Z,31.73
2016-05-24T04:50:30.671Z,31.73
2016-05-24T04:51:30.689Z,31.73
2016-05-24T04:52:30.535Z,31.73
2016-05-24T04:53:30.693Z,31.73
2016-05-24T04:54:30.712Z,31.83
2016-05-24T04:55:30.699Z,31.63
2016-05-24T04:56:30.718Z,31.83
2016-05-24T04:57:30.721Z,31.73
2016-05-24T04:58:30.723Z,31.63
2016-05-24T04:59:30.740Z,31.73
2016-05-24T05:00:30.729Z,31.73
2016-05-24T05:01:30.746Z,31.63
2016-05-24T05:02:30.749Z,31.63
2016-05-24T05:03:30.752Z,31.83
2016-05-24T05:04:30.754Z,31.83
2016-05-24T05:05:30.757Z,31.73
2016-05-24T05:06:30.775Z,31.73
2016-05-24T05:07:30.778Z,31.83
2016-05-24T05:08:30.781Z,31.54
2016-05-24T05:09:30.800Z,31.83
2016-05-24T05:10:30.802Z,31.73
2016-05-24T05:11:30.805Z,31.73
2016-05-24T05:12:30.808Z,31.54
2016-05-24T05:13:30.826Z,31.63
2016-05-24T05:14:30.828Z,31.73
2016-05-24T05:15:30.675Z,31.63
2016-05-24T05:16:30.833Z,31.73
2016-05-24T05:17:30.680Z,31.73
2016-05-24T05:18:30.699Z,31.73
2016-05-24T05:19:30.858Z,31.73
2016-05-24T05:20:30.876Z,31.63
2016-05-24T05:21:30.863Z,31.63
2016-05-24T05:22:30.866Z,31.54
2016-05-24T05:23:30.869Z,31.83
2016-05-24T05:24:30.886Z,31.44
2016-05-24T05:25:30.890Z,31.54
2016-05-24T05:26:30.893Z,31.73
2016-05-24T05:27:30.910Z,31.63
2016-05-24T05:28:30.912Z,31.54
2016-05-24T05:29:30.915Z,31.54
2016-05-24T05:30:30.918Z,31.44
2016-05-24T05:31:30.921Z,31.54
2016-05-24T05:32:30.939Z,31.63
2016-05-24T05:33:30.943Z,31.73
2016-05-24T05:34:30.945Z,31.44
2016-05-24T05:35:30.947Z,31.34
2016-05-24T05:36:30.951Z,31.44
2016-05-24T05:37:30.968Z,31.44
2016-05-24T05:38:30.970Z,31.44
2016-05-24T05:39:30.973Z,31.54
2016-05-24T05:40:30.976Z,31.44
2016-05-24T05:41:30.979Z,31.63
2016-05-24T05:42:30.997Z,31.44
2016-05-24T05:43:30.844Z,31.54
2016-05-24T05:44:31.019Z,31.25
2016-05-24T05:45:31.005Z,31.44
2016-05-24T05:46:31.024Z,31.54
2016-05-24T05:47:31.026Z,31.63
2016-05-24T05:48:31.029Z,31.54
2016-05-24T05:49:31.033Z,31.63
2016-05-24T05:50:31.035Z,31.34
2016-05-24T05:51:31.053Z,31.34
2016-05-24T05:52:31.055Z,31.34
2016-05-24T05:53:31.058Z,31.34
2016-05-24T05:54:31.123Z,31.44
2016-05-24T05:55:31.063Z,31.15
2016-05-24T05:56:30.926Z,31.44
2016-05-24T05:57:31.085Z,31.25
2016-05-24T05:58:31.087Z,31.25
2016-05-24T05:59:31.106Z,31.44
2016-05-24T06:00:31.093Z,31.25
2016-05-24T06:01:31.111Z,31.05
2016-05-24T06:02:31.129Z,31.05
2016-05-24T06:03:31.116Z,31.15
2016-05-24T06:04:31.120Z,31.15
2016-05-24T06:05:31.137Z,31.34
2016-05-24T06:06:31.140Z,31.34
2016-05-24T06:07:31.142Z,31.05
2016-05-24T06:08:31.145Z,31.05
2016-05-24T06:09:30.991Z,31.15
2016-05-24T06:10:31.166Z,31.15
2016-05-24T06:11:31.889Z,31.25
2016-05-24T06:12:31.172Z,31.05
2016-05-24T06:13:31.174Z,30.96
2016-05-24T06:14:31.100Z,31.25
2016-05-24T06:15:32.055Z,31.15
2016-05-24T06:16:31.197Z,30.96
2016-05-24T06:17:31.529Z,30.86
2016-05-24T06:18:31.219Z,30.96
2016-05-24T06:19:31.206Z,31.15
2016-05-24T06:20:31.225Z,31.25
2016-05-24T06:21:31.211Z,30.76
2016-05-24T06:22:31.246Z,31.05
2016-05-24T06:23:31.248Z,30.86
2016-05-24T06:24:31.235Z,31.05
2016-05-24T06:25:31.254Z,30.76
2016-05-24T06:26:31.257Z,31.15
2016-05-24T06:27:31.259Z,31.15
2016-05-24T06:28:31.277Z,31.15
2016-05-24T06:29:31.124Z,30.96
2016-05-24T06:30:31.329Z,30.66
2016-05-24T06:31:31.285Z,30.76
2016-05-24T06:32:31.304Z,31.15
2016-05-24T06:33:31.307Z,30.76
2016-05-24T06:34:31.153Z,30.96
2016-05-24T06:35:31.312Z,30.96
2016-05-24T06:36:31.315Z,30.76
2016-05-24T06:37:31.208Z,30.76
2016-05-24T06:38:31.336Z,30.96
2016-05-24T06:39:31.339Z,31.05
2016-05-24T06:40:31.185Z,30.96
2016-05-24T06:41:31.203Z,30.76
2016-05-24T06:42:31.205Z,30.57
2016-05-24T06:43:31.380Z,30.96
2016-05-24T06:44:31.398Z,30.28
2016-05-24T06:45:31.386Z,30.28
2016-05-24T06:46:31.389Z,30.96
2016-05-24T06:47:31.391Z,30.96
2016-05-24T06:48:31.238Z,30.96
2016-05-24T06:49:31.241Z,30.66
2016-05-24T06:50:31.415Z,30.57
2016-05-24T06:51:31.417Z,30.47
2016-05-24T06:52:31.264Z,30.66
2016-05-24T06:53:31.422Z,30.57
2016-05-24T06:54:31.457Z,30.47
2016-05-24T06:55:31.444Z,30.86
2016-05-24T06:56:31.462Z,30.47
2016-05-24T06:57:31.590Z,30.66
2016-05-24T06:58:31.483Z,30.66
2016-05-24T06:59:31.471Z,30.86
2016-05-24T07:00:31.317Z,30.38
2016-05-24T07:01:31.476Z,30.86
2016-05-24T07:02:31.322Z,30.57
2016-05-24T07:03:31.481Z,30.66
2016-05-24T07:04:31.499Z,30.66
2016-05-24T07:05:31.502Z,30.57
2016-05-24T07:06:31.504Z,30.18
2016-05-24T07:07:31.523Z,30.47
2016-05-24T07:08:31.526Z,30.47
2016-05-24T07:09:31.529Z,30.66
2016-05-24T07:10:31.375Z,30.18
2016-05-24T07:11:31.393Z,30.18
2016-05-24T07:12:31.537Z,30.47
2016-05-24T07:13:31.556Z,30.57
2016-05-24T07:14:31.558Z,30.28
2016-05-24T07:15:31.403Z,30.57
2016-05-24T07:16:31.406Z,30.47
2016-05-24T07:17:31.581Z,30.18
2016-05-24T07:18:31.583Z,30.47
2016-05-24T07:19:31.586Z,30.38
2016-05-24T07:20:31.433Z,30.38
2016-05-24T07:21:31.592Z,30.28
2016-05-24T07:22:31.610Z,30.28
2016-05-24T07:23:31.613Z,30.08
2016-05-24T07:24:31.710Z,30.28
2016-05-24T07:25:31.634Z,30.28
2016-05-24T07:26:31.699Z,29.91
2016-05-24T07:27:31.483Z,29.43
2016-05-24T07:28:31.642Z,29.24
2016-05-24T07:29:31.644Z,28.86
2016-05-24T07:30:31.663Z,28.28
2016-05-24T07:31:31.665Z,28.39
2016-05-24T07:32:31.668Z,28
2016-05-24T07:33:31.671Z,28
2016-05-24T07:34:31.674Z,27.82
2016-05-24T07:35:31.692Z,27.82
2016-05-24T07:36:31.695Z,27.62
2016-05-24T07:37:31.713Z,27.33
2016-05-24T07:38:31.701Z,27.24
2016-05-24T07:39:31.703Z,27.06
2016-05-24T07:40:31.721Z,26.96
2016-05-24T07:41:31.833Z,26.57
2016-05-24T07:42:31.773Z,26.57
2016-05-24T07:43:31.745Z,26.67
2016-05-24T07:44:31.747Z,26.67
2016-05-24T07:45:32.173Z,26.39
2016-05-24T07:46:31.597Z,26.29
2016-05-24T07:47:31.802Z,26.29
2016-05-24T07:48:31.790Z,26.2
2016-05-24T07:49:31.777Z,26.1
2016-05-24T07:50:31.780Z,26.29
2016-05-24T07:51:31.783Z,25.9
2016-05-24T07:52:31.800Z,26
2016-05-24T07:53:31.803Z,26.1
2016-05-24T07:54:31.805Z,25.9
2016-05-24T07:55:31.824Z,26
2016-05-24T07:56:31.811Z,25.81
2016-05-24T07:57:31.830Z,25.9
2016-05-24T07:58:31.832Z,26
2016-05-24T07:59:31.882Z,26.1
2016-05-24T08:00:32.524Z,25.73
2016-05-24T08:01:31.855Z,25.82
2016-05-24T08:02:31.905Z,26.01
2016-05-24T08:03:31.877Z,26.1
2016-05-24T08:04:31.880Z,26.01
2016-05-24T08:05:31.741Z,26.2
2016-05-24T08:06:31.885Z,25.9
2016-05-24T08:07:31.903Z,26
2016-05-24T08:08:31.749Z,26.1
2016-05-24T08:09:31.752Z,25.9
2016-05-24T08:10:31.927Z,26.1
2016-05-24T08:11:31.929Z,25.81
2016-05-24T08:12:32.057Z,25.9
2016-05-24T08:13:31.935Z,25.9
2016-05-24T08:14:32.062Z,25.81
2016-05-24T08:15:31.987Z,26
2016-05-24T08:16:31.959Z,25.9
2016-05-24T08:17:31.806Z,26.1
2016-05-24T08:18:31.964Z,26.29
2016-05-24T08:19:31.982Z,26.2
2016-05-24T08:20:31.985Z,26.1
2016-05-24T08:21:31.989Z,25.9
2016-05-24T08:22:32.022Z,26.2
2016-05-24T08:23:32.009Z,26.1
2016-05-24T08:24:32.012Z,26.2
2016-05-24T08:25:32.077Z,26.1
2016-05-24T08:26:32.094Z,25.81
2016-05-24T08:27:32.035Z,26.29
2016-05-24T08:28:32.038Z,25.9
2016-05-24T08:29:32.041Z,26.2
2016-05-24T08:30:32.355Z,25.9
2016-05-24T08:31:32.061Z,26.29
2016-05-24T08:32:32.064Z,25.9
2016-05-24T08:33:31.910Z,26.01
2016-05-24T08:34:32.085Z,26.2
2016-05-24T08:35:32.088Z,26
2016-05-24T08:36:32.091Z,26.2
2016-05-24T08:37:32.093Z,25.9
2016-05-24T08:38:32.112Z,26
2016-05-24T08:39:32.114Z,25.81
2016-05-24T08:40:32.132Z,25.81
2016-05-24T08:41:31.979Z,26
2016-05-24T08:42:32.138Z,25.9
2016-05-24T08:43:32.141Z,25.9
2016-05-24T08:44:32.159Z,26.29
2016-05-24T08:45:32.490Z,26
2016-05-24T08:46:32.164Z,26
2016-05-24T08:47:32.167Z,25.81
2016-05-24T08:48:32.185Z,26
2016-05-24T08:49:32.188Z,26
2016-05-24T08:50:32.051Z,26.29
2016-05-24T08:51:32.037Z,26.2
2016-05-24T08:52:32.305Z,26.1
2016-05-24T08:53:32.214Z,25.9
2016-05-24T08:54:32.061Z,25.92
2016-05-24T08:55:32.079Z,25.9
2016-05-24T08:56:32.083Z,26.2
2016-05-24T08:57:32.131Z,25.9
2016-05-24T08:58:32.244Z,25.71
2016-05-24T08:59:32.261Z,25.9
2016-05-24T09:00:32.577Z,25.9
2016-05-24T09:01:32.267Z,25.71
2016-05-24T09:02:32.269Z,25.9
2016-05-24T09:03:32.289Z,25.71
2016-05-24T09:04:32.291Z,26.01
2016-05-24T09:05:32.293Z,26
2016-05-24T09:06:32.312Z,26.1
2016-05-24T09:07:32.315Z,26.01
2016-05-24T09:08:32.318Z,26
2016-05-24T09:09:32.320Z,25.9
2016-05-24T09:10:32.448Z,25.92
2016-05-24T09:11:32.341Z,26.11
2016-05-24T09:12:32.344Z,25.81
2016-05-24T09:13:32.346Z,26.01
2016-05-24T09:14:32.365Z,26.21
2016-05-24T09:15:32.368Z,25.92
2016-05-24T09:16:32.370Z,26.11
2016-05-24T09:17:32.389Z,26.01
2016-05-24T09:18:32.391Z,25.9
2016-05-24T09:19:32.394Z,25.81
2016-05-24T09:20:32.397Z,26
2016-05-24T09:21:32.415Z,25.73
2016-05-24T09:22:32.417Z,25.92
2016-05-24T09:23:32.498Z,25.92
2016-05-24T09:24:32.267Z,25.92
2016-05-24T09:25:32.457Z,25.82
2016-05-24T09:26:32.475Z,26.11
2016-05-24T09:27:32.461Z,26.01
2016-05-24T09:28:32.450Z,26
2016-05-24T09:29:32.311Z,25.9
2016-05-24T09:30:32.580Z,26
2016-05-24T09:31:32.567Z,25.81
2016-05-24T09:32:32.600Z,26
2016-05-24T09:33:32.494Z,25.81
2016-05-24T09:34:32.591Z,25.81
2016-05-24T09:35:32.499Z,26
2016-05-24T09:36:32.517Z,26.1
2016-05-24T09:37:32.583Z,25.81
2016-05-24T09:38:32.523Z,25.9
2016-05-24T09:39:32.526Z,26
2016-05-24T09:40:32.544Z,26.1
2016-05-24T09:41:32.562Z,25.71
2016-05-24T09:42:32.565Z,25.9
2016-05-24T09:43:32.568Z,25.81
2016-05-24T09:44:32.570Z,26
2016-05-24T09:45:37.167Z,25.9
2016-05-24T09:46:32.887Z,26.11
2016-05-24T09:47:32.595Z,25.81
2016-05-24T09:48:32.629Z,26.2
2016-05-24T09:49:32.614Z,25.42
2016-05-24T09:50:32.603Z,26.1
2016-05-24T09:51:32.698Z,26.1
2016-05-24T09:52:32.467Z,26.1
2016-05-24T09:53:32.626Z,26.1
2016-05-24T09:54:32.628Z,26.1
2016-05-24T09:55:32.506Z,26.11
2016-05-24T09:56:32.712Z,25.71
2016-05-24T09:57:32.652Z,26
2016-05-24T09:58:32.670Z,25.53
2016-05-24T09:59:32.673Z,25.71
2016-05-24T10:00:32.551Z,25.52
2016-05-24T10:01:32.694Z,26.1
2016-05-24T10:02:32.697Z,26.1
2016-05-24T10:03:32.700Z,25.9
2016-05-24T10:04:32.718Z,25.81
2016-05-24T10:05:32.720Z,25.52
2016-05-24T10:06:32.737Z,26.1
2016-05-24T10:07:32.762Z,25.81
2016-05-24T10:08:32.801Z,25.82
2016-05-24T10:09:32.826Z,26.1
2016-05-24T10:10:32.851Z,25.81
2016-05-24T10:11:32.882Z,25.42
2016-05-24T10:12:32.893Z,26.1
2016-05-24T10:13:32.904Z,25.62
2016-05-24T10:14:33.008Z,26
2016-05-24T10:15:32.942Z,25.81
2016-05-24T10:16:32.792Z,26.1
2016-05-24T10:17:33.033Z,26.1
2016-05-24T10:18:32.960Z,26
2016-05-24T10:19:32.980Z,26.1
2016-05-24T10:20:32.986Z,26
2016-05-24T10:21:35.084Z,25.9
2016-05-24T10:22:32.838Z,26
2016-05-24T10:23:33.014Z,25.71
2016-05-24T10:24:33.017Z,25.62
2016-05-24T10:25:32.865Z,26.1
2016-05-24T10:26:33.431Z,26.1
2016-05-24T10:27:32.981Z,26.2
2016-05-24T10:28:33.046Z,26.1
2016-05-24T10:29:33.112Z,26.2
2016-05-24T10:30:33.068Z,25.81
2016-05-24T10:31:33.071Z,25.71
2016-05-24T10:32:33.074Z,25.42
2016-05-24T10:33:32.935Z,25.71
2016-05-24T10:34:32.954Z,25.71
2016-05-24T10:35:33.097Z,25.71
2016-05-24T10:36:33.115Z,25.9
2016-05-24T10:37:33.118Z,26
2016-05-24T10:38:33.121Z,25.71
2016-05-24T10:39:33.123Z,25.71
2016-05-24T10:40:33.220Z,25.71
2016-05-24T10:41:33.145Z,25.71
2016-05-24T10:42:33.350Z,25.71
2016-05-24T10:43:33.181Z,25.42
2016-05-24T10:44:33.169Z,25.42
2016-05-24T10:45:33.171Z,25.71
2016-05-24T10:46:33.171Z,25.81
2016-05-24T10:47:33.033Z,26
2016-05-24T10:48:33.177Z,26
2016-05-24T10:49:33.289Z,26
2016-05-24T10:50:33.213Z,26.1
2016-05-24T10:51:33.216Z,26.1
2016-05-24T10:52:33.219Z,25.71
2016-05-24T10:53:33.221Z,25.71
2016-05-24T10:54:33.068Z,25.71
2016-05-24T10:55:33.241Z,26.1
2016-05-24T10:56:33.244Z,25.71
2016-05-24T10:57:33.247Z,25.9
2016-05-24T10:58:33.250Z,25.42
2016-05-24T10:59:33.252Z,25.62
2016-05-24T11:00:33.349Z,25.32
2016-05-24T11:01:33.273Z,25.52
2016-05-24T11:02:33.293Z,25.52
2016-05-24T11:03:33.295Z,25.62
2016-05-24T11:04:33.298Z,25.42
2016-05-24T11:05:33.144Z,25.71
2016-05-24T11:06:33.318Z,25.42
2016-05-24T11:07:33.337Z,25.42
2016-05-24T11:08:33.324Z,25.32
2016-05-24T11:09:33.326Z,25.42
2016-05-24T11:10:33.392Z,25.62
2016-05-24T11:11:33.192Z,25.42
2016-05-24T11:12:33.366Z,25.42
2016-05-24T11:13:33.369Z,25.42
2016-05-24T11:14:33.371Z,25.42
2016-05-24T11:15:33.375Z,25.42
2016-05-24T11:16:33.377Z,25.52
2016-05-24T11:17:33.394Z,25.42
2016-05-24T11:18:33.242Z,25.42
2016-05-24T11:19:33.244Z,25.52
2016-05-24T11:20:33.419Z,25.13
2016-05-24T11:21:33.422Z,25.13
2016-05-24T11:22:33.424Z,25.52
2016-05-24T11:23:33.271Z,25.62
2016-05-24T11:24:33.445Z,25.32
2016-05-24T11:25:33.447Z,25.32
2016-05-24T11:26:33.450Z,25.32
2016-05-24T11:27:33.469Z,25.52
2016-05-24T11:28:33.330Z,25.62
2016-05-24T11:29:33.474Z,25.23
2016-05-24T11:30:33.571Z,25.52
2016-05-24T11:31:33.480Z,25.42
2016-05-24T11:32:33.576Z,25.52
2016-05-24T11:33:33.501Z,25.42
2016-05-24T11:34:33.551Z,25.52
2016-05-24T11:35:33.522Z,25.32
2016-05-24T11:36:33.524Z,25.52
2016-05-24T11:37:33.620Z,25.23
2016-05-24T11:38:33.545Z,25.32
2016-05-24T11:39:33.392Z,25.23
2016-05-24T11:40:33.551Z,25.23
2016-05-24T11:41:33.553Z,25.23
2016-05-24T11:42:33.556Z,25.32
2016-05-24T11:43:33.575Z,25.42
2016-05-24T11:44:33.577Z,25.42
2016-05-24T11:45:33.689Z,25.52
2016-05-24T11:46:33.503Z,25.52
2016-05-24T11:47:33.616Z,25.42
2016-05-24T11:48:33.603Z,25.42
2016-05-24T11:49:33.466Z,25.42
2016-05-24T11:50:33.625Z,25.42
2016-05-24T11:51:33.628Z,25.52
2016-05-24T11:52:33.629Z,25.23
2016-05-24T11:53:33.648Z,25.42
2016-05-24T11:54:33.651Z,25.42
2016-05-24T11:55:33.653Z,25.42
2016-05-24T11:56:33.672Z,25.42
2016-05-24T11:57:33.674Z,25.42
2016-05-24T11:58:33.677Z,25.32
2016-05-24T11:59:33.680Z,25.42
2016-05-24T12:00:33.791Z,25.42
2016-05-24T12:01:33.701Z,25.42
2016-05-24T12:02:33.735Z,25.52
2016-05-24T12:03:33.706Z,25.52
2016-05-24T12:04:33.724Z,25.23
2016-05-24T12:05:33.727Z,25.42
2016-05-24T12:06:33.730Z,25.23
2016-05-24T12:07:33.732Z,25.42
2016-05-24T12:08:33.767Z,25.42
2016-05-24T12:09:33.754Z,25.23
2016-05-24T12:10:33.757Z,25.42
2016-05-24T12:11:33.790Z,25.62
2016-05-24T12:12:33.621Z,25.52
2016-05-24T12:13:33.780Z,25.62
2016-05-24T12:14:33.783Z,25.62
2016-05-24T12:15:33.817Z,25.71
2016-05-24T12:16:33.803Z,26
2016-05-24T12:17:33.650Z,26.2
2016-05-24T12:18:33.840Z,25.99
2016-05-24T12:19:33.828Z,26
2016-05-24T12:20:33.830Z,25.71
2016-05-24T12:21:33.832Z,25.71
2016-05-24T12:22:33.851Z,25.9
2016-05-24T12:23:33.853Z,26.09
2016-05-24T12:24:33.716Z,26.28
2016-05-24T12:25:33.968Z,25.79
2016-05-24T12:26:33.878Z,26.18
2016-05-24T12:27:33.896Z,25.81
2016-05-24T12:28:33.898Z,26.2
2016-05-24T12:29:33.901Z,25.79
2016-05-24T12:30:34.341Z,26.1
2016-05-24T12:31:33.969Z,25.9
2016-05-24T12:32:33.925Z,25.79
2016-05-24T12:33:33.927Z,26.1
2016-05-24T12:34:33.930Z,25.99
2016-05-24T12:35:33.933Z,26.09
2016-05-24T12:36:33.952Z,26.18
2016-05-24T12:37:33.954Z,26.09
2016-05-24T12:38:33.957Z,26.09
2016-05-24T12:39:33.975Z,25.89
2016-05-24T12:40:33.978Z,25.99
2016-05-24T12:41:33.981Z,26.18
2016-05-24T12:42:33.998Z,26.29
2016-05-24T12:43:34.001Z,26.09
2016-05-24T12:44:34.003Z,26.1
2016-05-24T12:45:34.084Z,26
2016-05-24T12:46:34.010Z,25.81
2016-05-24T12:47:34.028Z,25.89
2016-05-24T12:48:34.030Z,25.89
2016-05-24T12:49:34.033Z,26
2016-05-24T12:50:34.051Z,25.81
2016-05-24T12:51:33.898Z,25.81
2016-05-24T12:52:34.057Z,25.81
2016-05-24T12:53:34.059Z,25.81
2016-05-24T12:54:34.078Z,25.9
2016-05-24T12:55:34.081Z,26
2016-05-24T12:56:34.161Z,25.81
2016-05-24T12:57:34.086Z,25.9
2016-05-24T12:58:34.104Z,26
2016-05-24T12:59:33.950Z,26.1
2016-05-24T13:00:34.422Z,26.1
2016-05-24T13:01:34.112Z,25.62